Time;durP1;ratioP1;P1;durP2;ratioP2;P2;SDS_P1;SDS_P2;PMS_P1;PMS_P2;Temp;Humidity;BMP_temperature;BMP_pressure;BME280_temperature;BME280_humidity;BME280_pressure;Samples;Min_cycle;Max_cycle;Signal;HPM_P1;HPM_P2
2022/11/12 00:00:35;;;;;;;3.28;1.50;;;9.30;99.90;;;;;;5109210;27;20027;-82
2022/11/12 00:03:01;;;;;;;1.83;1.00;;;9.40;99.90;;;;;;5094203;28;20039;-85
2022/11/12 00:05:27;;;;;;;1.85;1.27;;;9.50;99.90;;;;;;5096643;27;20388;-84
2022/11/12 00:07:52;;;;;;;1.42;1.00;;;9.60;99.90;;;;;;5103058;28;20043;-85
2022/11/12 00:10:18;;;;;;;1.67;1.13;;;9.70;99.90;;;;;;5104559;27;20047;-85
2022/11/12 00:12:45;;;;;;;2.08;1.10;;;9.70;99.90;;;;;;5098745;28;20020;-85
2022/11/12 00:15:11;;;;;;;0.88;0.70;;;9.70;99.90;;;;;;5097753;28;20055;-84
2022/11/12 00:17:38;;;;;;;2.72;0.80;;;9.60;99.90;;;;;;5100566;27;20070;-86
2022/11/12 00:20:05;;;;;;;1.33;1.00;;;9.60;99.90;;;;;;5102225;27;20076;-85
2022/11/12 00:22:30;;;;;;;2.75;0.98;;;9.50;99.90;;;;;;5099179;28;20020;-85
2022/11/12 00:24:56;;;;;;;3.88;1.55;;;9.40;99.90;;;;;;5096740;28;20414;-81
2022/11/12 00:27:21;;;;;;;5.43;3.15;;;9.30;99.90;;;;;;5099328;28;20036;-84
2022/11/12 00:29:47;;;;;;;6.57;2.53;;;9.30;99.90;;;;;;5105816;27;20043;-85
2022/11/12 00:32:13;;;;;;;3.33;1.70;;;9.20;99.90;;;;;;5105790;27;20027;-84
2022/11/12 00:34:38;;;;;;;3.00;2.13;;;9.10;99.90;;;;;;5097123;28;20039;-85
2022/11/12 00:37:05;;;;;;;5.03;3.13;;;9.00;99.90;;;;;;5097065;28;20030;-85
2022/11/12 00:39:31;;;;;;;8.20;3.60;;;9.00;99.90;;;;;;5093371;28;20046;-85
2022/11/12 00:41:57;;;;;;;7.00;3.28;;;8.90;99.90;;;;;;5108653;27;20023;-83
2022/11/12 00:44:23;;;;;;;6.60;2.70;;;8.90;99.90;;;;;;5101179;27;20105;-85
2022/11/12 00:46:49;;;;;;;6.65;3.10;;;8.80;99.90;;;;;;5100800;27;20106;-84
2022/11/12 00:49:16;;;;;;;6.43;2.75;;;8.80;99.90;;;;;;5104646;28;20044;-84
2022/11/12 00:51:42;;;;;;;4.05;2.42;;;8.80;99.90;;;;;;5100675;27;20466;-84
2022/11/12 00:54:08;;;;;;;5.82;2.90;;;8.70;99.90;;;;;;5104344;28;20059;-83
2022/11/12 00:56:34;;;;;;;7.93;3.35;;;8.70;99.90;;;;;;5092488;28;20027;-85
2022/11/12 00:58:59;;;;;;;6.05;2.47;;;8.60;99.90;;;;;;5105278;27;20069;-86
2022/11/12 01:01:25;;;;;;;4.28;2.45;;;8.60;99.90;;;;;;5104099;28;20020;-81
2022/11/12 01:03:52;;;;;;;3.10;2.30;;;8.60;99.90;;;;;;5098433;27;20480;-85
2022/11/12 01:06:20;;;;;;;6.43;2.78;;;8.60;99.90;;;;;;5092583;28;20051;-85
2022/11/12 01:08:47;;;;;;;4.43;1.98;;;8.60;99.90;;;;;;5093014;28;20044;-84
2022/11/12 01:11:12;;;;;;;3.00;2.17;;;8.60;99.90;;;;;;5106004;27;20467;-83
2022/11/12 01:13:40;;;;;;;4.70;2.17;;;8.50;99.90;;;;;;5096753;28;20067;-85
2022/11/12 01:16:11;;;;;;;2.95;1.63;;;8.50;99.90;;;;;;5100861;28;20114;-85
2022/11/12 01:18:37;;;;;;;2.30;1.58;;;8.50;99.90;;;;;;5096754;28;20080;-84
2022/11/12 01:21:05;;;;;;;5.10;1.33;;;8.40;99.90;;;;;;5098510;27;20024;-85
2022/11/12 01:23:32;;;;;;;2.08;1.27;;;8.40;99.90;;;;;;5101071;28;20077;-85
2022/11/12 01:26:02;;;;;;;2.15;1.17;;;8.50;99.90;;;;;;5102430;27;20019;-83
2022/11/12 01:28:28;;;;;;;2.33;1.48;;;8.50;99.90;;;;;;5097260;28;20047;-85
2022/11/12 01:30:53;;;;;;;1.60;1.30;;;8.60;99.90;;;;;;5103793;27;20023;-84
2022/11/12 01:33:19;;;;;;;1.13;1.00;;;8.60;99.90;;;;;;5101993;28;20029;-85
2022/11/12 01:35:44;;;;;;;3.47;1.08;;;8.60;99.90;;;;;;5105210;27;20028;-84
2022/11/12 01:38:10;;;;;;;6.75;1.42;;;8.70;99.90;;;;;;5102038;27;20130;-85
2022/11/12 01:40:36;;;;;;;1.55;0.93;;;8.70;99.90;;;;;;5098219;28;20044;-84
2022/11/12 01:43:01;;;;;;;1.85;1.00;;;8.80;99.90;;;;;;5094752;28;20016;-84
2022/11/12 01:45:27;;;;;;;3.45;0.93;;;8.90;99.90;;;;;;5102620;28;20024;-84
2022/11/12 01:47:54;;;;;;;2.35;1.08;;;9.10;99.90;;;;;;5090556;28;20056;-86
2022/11/12 01:50:35;;;;;;;1.90;0.90;;;9.60;99.90;;;;;;5095036;28;20028;-84
2022/11/12 01:53:08;;;;;;;1.73;1.00;;;10.00;99.90;;;;;;5103093;28;20020;-81
2022/11/12 01:55:36;;;;;;;2.67;1.10;;;10.20;99.90;;;;;;5091803;28;20395;-85
2022/11/12 01:58:15;;;;;;;2.15;1.20;;;10.10;99.90;;;;;;5093621;28;20089;-85
2022/11/12 02:00:42;;;;;;;1.10;0.98;;;10.10;99.90;;;;;;5101037;28;20114;-85
2022/11/12 02:03:13;;;;;;;1.48;0.93;;;10.00;99.90;;;;;;5091869;28;20036;-85
2022/11/12 02:05:41;;;;;;;3.97;0.70;;;9.90;99.90;;;;;;5100077;28;20032;-85
2022/11/12 02:08:09;;;;;;;1.83;1.10;;;9.80;99.90;;;;;;5094686;28;20044;-85
2022/11/12 02:10:38;;;;;;;1.50;0.90;;;9.80;99.90;;;;;;5091566;28;20056;-85
2022/11/12 02:15:48;;;;;;;2.63;1.25;;;9.50;99.90;;;;;;5097661;28;20115;-85
2022/11/12 02:18:14;;;;;;;2.60;0.82;;;9.40;99.90;;;;;;5094653;28;20464;-85
2022/11/12 02:20:39;;;;;;;6.13;0.88;;;9.30;99.90;;;;;;5095919;28;20030;-84
2022/11/12 02:23:07;;;;;;;2.22;0.98;;;9.20;99.90;;;;;;5102133;28;20023;-85
2022/11/12 02:26:21;;;;;;;1.08;0.82;;;9.10;99.90;;;;;;5092453;27;20121;-85
2022/11/12 02:28:47;;;;;;;0.90;0.90;;;9.00;99.90;;;;;;5083224;28;20537;-85
2022/11/12 02:31:12;;;;;;;2.60;1.20;;;8.90;99.90;;;;;;5082890;28;20056;-85
2022/11/12 02:33:38;;;;;;;1.70;1.20;;;8.90;99.90;;;;;;5084022;28;20063;-85
2022/11/12 02:36:03;;;;;;;2.53;0.88;;;8.80;99.90;;;;;;5081520;28;20103;-84
2022/11/12 02:38:29;;;;;;;2.17;0.80;;;8.60;99.90;;;;;;5083817;28;20094;-85
2022/11/12 02:40:55;;;;;;;5.97;0.90;;;8.60;99.90;;;;;;5079474;28;20034;-82
2022/11/12 02:43:20;;;;;;;2.00;1.17;;;8.50;99.90;;;;;;5078871;28;20029;-86
2022/11/12 02:45:46;;;;;;;3.85;1.40;;;8.40;99.90;;;;;;5081441;28;20111;-83
2022/11/12 02:48:12;;;;;;;0.82;0.82;;;8.30;99.90;;;;;;5079187;28;20119;-85
2022/11/12 02:50:38;;;;;;;1.83;1.05;;;8.20;99.90;;;;;;5081254;28;20365;-85
2022/11/12 02:53:03;;;;;;;0.98;0.88;;;8.20;99.90;;;;;;5083287;28;20469;-84
2022/11/12 02:55:29;;;;;;;1.10;1.00;;;8.10;99.90;;;;;;5082747;28;20273;-84
2022/11/12 02:57:58;;;;;;;0.80;0.80;;;8.10;99.90;;;;;;5077396;28;20053;-85
2022/11/12 03:00:23;;;;;;;5.25;1.00;;;8.10;99.90;;;;;;5079352;28;20056;-85
2022/11/12 03:02:58;;;;;;;2.13;0.80;;;8.00;99.90;;;;;;5082804;28;20063;-85
2022/11/12 03:05:36;;;;;;;1.67;0.90;;;8.00;99.90;;;;;;5081389;28;20032;-85
2022/11/12 03:08:04;;;;;;;3.08;1.02;;;7.90;99.90;;;;;;5078253;28;20120;-85
2022/11/12 03:10:31;;;;;;;0.85;0.80;;;7.80;99.90;;;;;;5082026;28;20473;-85
2022/11/12 03:12:58;;;;;;;0.77;0.77;;;7.80;99.90;;;;;;5082422;28;20028;-85
2022/11/12 03:15:24;;;;;;;2.95;0.85;;;7.80;99.90;;;;;;5081521;28;20102;-85
2022/11/12 03:17:50;;;;;;;1.25;0.80;;;7.80;99.90;;;;;;5081474;28;20056;-81
2022/11/12 03:20:16;;;;;;;2.10;0.98;;;7.80;99.90;;;;;;5072270;28;20036;-85
2022/11/12 03:22:42;;;;;;;3.72;1.33;;;7.80;99.90;;;;;;5078868;28;20028;-85
2022/11/12 03:25:09;;;;;;;1.95;0.90;;;7.70;99.90;;;;;;5083227;28;20048;-85
2022/11/12 03:27:35;;;;;;;1.15;0.80;;;7.70;99.90;;;;;;5077078;28;20028;-84
2022/11/12 03:30:00;;;;;;;1.27;0.90;;;7.60;99.90;;;;;;5081036;28;20028;-84
2022/11/12 03:32:26;;;;;;;1.65;1.00;;;7.60;99.90;;;;;;5079898;28;20032;-85
2022/11/12 03:34:52;;;;;;;0.98;0.93;;;7.60;99.90;;;;;;5081323;28;20036;-84
2022/11/12 03:37:18;;;;;;;1.45;1.13;;;7.50;99.90;;;;;;5069939;28;20473;-84
2022/11/12 03:39:43;;;;;;;0.93;0.90;;;7.50;99.90;;;;;;5066523;28;20020;-84
2022/11/12 03:42:09;;;;;;;2.47;1.00;;;7.40;99.90;;;;;;5068550;28;20025;-85
2022/11/12 03:44:34;;;;;;;4.78;1.17;;;7.40;99.90;;;;;;5066994;28;20511;-85
2022/11/12 03:47:00;;;;;;;3.35;1.30;;;7.30;99.90;;;;;;5066319;28;20029;-85
2022/11/12 03:49:26;;;;;;;2.08;1.10;;;7.30;99.90;;;;;;5066753;28;20052;-84
2022/11/12 03:51:51;;;;;;;0.70;0.70;;;7.30;99.90;;;;;;5070013;28;20025;-85
2022/11/12 03:54:18;;;;;;;1.25;0.90;;;7.30;99.90;;;;;;5066089;28;20055;-84
2022/11/12 03:56:44;;;;;;;1.33;1.23;;;7.30;99.90;;;;;;5065919;28;20087;-85
2022/11/12 03:59:13;;;;;;;4.80;1.75;;;7.30;99.90;;;;;;5068267;28;20025;-81
2022/11/12 04:01:39;;;;;;;6.68;2.80;;;7.30;99.90;;;;;;5064721;28;20040;-84
2022/11/12 04:04:04;;;;;;;3.10;2.80;;;7.30;99.90;;;;;;5066940;28;20445;-85
2022/11/12 04:09:15;;;;;;;5.53;3.47;;;7.20;99.90;;;;;;5059641;28;20175;-84
2022/11/12 04:11:40;;;;;;;4.45;3.55;;;7.20;99.90;;;;;;5064538;28;20048;-84
2022/11/12 04:14:06;;;;;;;3.67;3.20;;;7.10;99.90;;;;;;5067873;28;20024;-84
2022/11/12 04:22:09;;;;;;;3.85;2.70;;;7.00;99.90;;;;;;5063129;28;20534;-84
2022/11/12 04:27:28;;;;;;;3.10;2.38;;;7.00;99.90;;;;;;5064820;28;20495;-85
2022/11/12 04:32:45;;;;;;;4.53;2.50;;;7.00;99.90;;;;;;5064425;28;20108;-84
2022/11/12 04:35:12;;;;;;;3.13;2.33;;;6.90;99.90;;;;;;5065395;28;20115;-81
2022/11/12 04:37:43;;;;;;;1.83;1.73;;;6.90;99.90;;;;;;5063133;28;20039;-85
2022/11/12 04:45:57;;;;;;;1.85;1.73;;;6.80;99.90;;;;;;5062673;28;20040;-83
2022/11/12 04:48:24;;;;;;;2.22;1.73;;;6.80;99.90;;;;;;5058749;28;20883;-84
2022/11/12 04:50:56;;;;;;;3.45;1.65;;;6.70;99.90;;;;;;5055985;28;20024;-85
2022/11/12 04:53:29;;;;;;;1.50;1.40;;;6.70;99.90;;;;;;5061462;28;20031;-84
2022/11/12 04:55:59;;;;;;;1.58;1.38;;;6.70;99.90;;;;;;5056177;28;20032;-85
2022/11/12 04:58:27;;;;;;;1.50;1.40;;;6.70;99.90;;;;;;5060310;28;20031;-84
2022/11/12 05:00:53;;;;;;;1.42;1.10;;;6.60;99.90;;;;;;5060516;28;20029;-84
2022/11/12 05:03:18;;;;;;;2.70;1.60;;;6.60;99.90;;;;;;5067529;28;20024;-83
2022/11/12 05:05:44;;;;;;;3.25;1.45;;;6.60;99.90;;;;;;5064481;28;20044;-85
2022/11/12 05:08:12;;;;;;;1.27;1.05;;;6.70;99.90;;;;;;5065786;28;20108;-84
2022/11/12 05:10:39;;;;;;;0.80;0.80;;;6.60;99.90;;;;;;5063213;28;20635;-85
2022/11/12 05:13:04;;;;;;;2.25;1.25;;;6.60;99.90;;;;;;5063608;28;20119;-82
2022/11/12 05:15:30;;;;;;;1.00;1.00;;;6.60;99.90;;;;;;5064211;28;20183;-86
2022/11/12 05:17:55;;;;;;;1.88;1.00;;;6.60;99.90;;;;;;5065898;28;20030;-85
2022/11/12 05:20:24;;;;;;;1.73;1.10;;;6.60;99.90;;;;;;5064666;28;20503;-83
2022/11/12 05:22:54;;;;;;;0.70;0.70;;;6.60;99.90;;;;;;5062860;28;20039;-81
2022/11/12 05:25:19;;;;;;;2.50;0.82;;;6.60;99.90;;;;;;5066667;28;20408;-83
2022/11/12 05:27:45;;;;;;;0.77;0.77;;;6.60;99.90;;;;;;5065582;28;20092;-86
2022/11/12 05:30:14;;;;;;;2.60;1.08;;;6.60;99.90;;;;;;5066971;28;20028;-84
2022/11/12 05:32:43;;;;;;;0.80;0.80;;;6.60;99.90;;;;;;5067465;28;20082;-82
2022/11/12 05:35:09;;;;;;;1.13;0.90;;;6.50;99.90;;;;;;5063285;28;20036;-85
2022/11/12 05:37:37;;;;;;;1.20;0.80;;;6.50;99.90;;;;;;5067818;28;20388;-84
2022/11/12 05:40:06;;;;;;;1.15;1.00;;;6.50;99.90;;;;;;5067484;28;20249;-84
2022/11/12 05:42:31;;;;;;;0.70;0.70;;;6.40;99.90;;;;;;5065557;28;20094;-83
2022/11/12 05:44:57;;;;;;;2.50;0.90;;;6.50;99.90;;;;;;5068054;28;20466;-85
2022/11/12 05:47:22;;;;;;;1.70;1.00;;;6.40;99.90;;;;;;5067096;28;20033;-85
2022/11/12 05:49:51;;;;;;;1.02;0.93;;;6.50;99.90;;;;;;5062414;28;20024;-85
2022/11/12 05:52:16;;;;;;;3.58;1.10;;;6.50;99.90;;;;;;5064031;28;20048;-85
2022/11/12 05:54:51;;;;;;;3.22;1.05;;;6.40;99.90;;;;;;5066080;28;20054;-84
2022/11/12 05:57:17;;;;;;;1.88;1.05;;;6.40;99.90;;;;;;5059005;28;20120;-85
2022/11/12 05:59:42;;;;;;;1.42;1.10;;;6.40;99.90;;;;;;5060227;28;20070;-86
2022/11/12 06:02:08;;;;;;;1.00;1.00;;;6.40;99.90;;;;;;5064531;28;20119;-83
2022/11/12 06:04:34;;;;;;;2.08;1.00;;;6.40;99.90;;;;;;5065219;28;20035;-85
2022/11/12 06:07:02;;;;;;;0.85;0.85;;;6.40;99.90;;;;;;5061544;28;20394;-84
2022/11/12 06:09:28;;;;;;;1.17;1.08;;;6.30;99.90;;;;;;5057082;28;20454;-84
2022/11/12 06:11:54;;;;;;;1.10;1.00;;;6.40;99.90;;;;;;5065954;28;20031;-85
2022/11/12 06:14:19;;;;;;;0.80;0.80;;;6.30;99.90;;;;;;5066068;28;20033;-84
2022/11/12 06:16:46;;;;;;;1.42;1.05;;;6.40;99.90;;;;;;5064110;28;20032;-81
2022/11/12 06:19:12;;;;;;;0.90;0.90;;;6.20;99.90;;;;;;5062039;28;20066;-84
2022/11/12 06:21:37;;;;;;;1.13;1.00;;;6.30;99.90;;;;;;5062453;28;20066;-84
2022/11/12 06:24:03;;;;;;;0.85;0.85;;;6.20;99.90;;;;;;5060929;28;20107;-85
2022/11/12 06:26:29;;;;;;;0.90;0.90;;;6.20;99.90;;;;;;5066204;28;20040;-84
2022/11/12 06:28:56;;;;;;;2.45;1.02;;;6.20;99.90;;;;;;5065962;28;20077;-85
2022/11/12 06:31:25;;;;;;;0.80;0.80;;;6.20;99.90;;;;;;5059153;28;20035;-82
2022/11/12 06:33:50;;;;;;;2.50;0.88;;;6.10;99.90;;;;;;5060357;28;20087;-85
2022/11/12 06:36:18;;;;;;;0.70;0.70;;;6.20;99.90;;;;;;5062973;28;20078;-84
2022/11/12 06:38:44;;;;;;;0.85;0.85;;;6.00;99.90;;;;;;5058035;28;20048;-86
2022/11/12 06:41:12;;;;;;;0.63;0.63;;;6.00;99.90;;;;;;5063362;28;20473;-81
2022/11/12 06:43:39;;;;;;;1.08;0.75;;;6.00;99.90;;;;;;5061900;28;20032;-86
2022/11/12 06:46:13;;;;;;;0.70;0.70;;;6.10;99.90;;;;;;5065619;28;20064;-85
2022/11/12 06:48:42;;;;;;;1.63;1.52;;;6.10;99.90;;;;;;5058544;28;20029;-85
2022/11/12 06:51:19;;;;;;;0.60;0.60;;;6.10;99.90;;;;;;5050368;28;20053;-85
2022/11/12 06:53:46;;;;;;;0.77;0.65;;;6.20;99.90;;;;;;5056120;28;20276;-86
2022/11/12 06:56:14;;;;;;;0.63;0.63;;;6.10;99.90;;;;;;5064314;28;20098;-85
2022/11/12 06:58:43;;;;;;;1.33;0.90;;;6.10;99.90;;;;;;5064773;28;20328;-81
2022/11/12 07:01:14;;;;;;;0.98;0.70;;;6.10;99.90;;;;;;5065262;28;20393;-84
2022/11/12 07:03:44;;;;;;;0.60;0.60;;;6.10;99.90;;;;;;5063807;28;20332;-86
2022/11/12 07:06:17;;;;;;;1.67;1.20;;;6.10;99.90;;;;;;5059590;28;20047;-85
2022/11/12 07:08:42;;;;;;;1.85;0.90;;;6.10;99.90;;;;;;5061508;28;20028;-85
2022/11/12 07:11:09;;;;;;;1.20;1.05;;;6.10;99.90;;;;;;5063554;28;20127;-86
2022/11/12 07:13:35;;;;;;;0.70;0.70;;;6.10;99.90;;;;;;5062081;28;20028;-83
2022/11/12 07:16:02;;;;;;;1.95;0.95;;;6.10;99.90;;;;;;5066142;28;20032;-85
2022/11/12 07:18:29;;;;;;;1.00;0.90;;;6.20;99.90;;;;;;5064077;28;20120;-84
2022/11/12 07:21:09;;;;;;;0.93;0.80;;;6.20;99.90;;;;;;5063186;28;20029;-85
2022/11/12 07:23:36;;;;;;;1.88;1.00;;;6.30;99.90;;;;;;5065061;28;20028;-84
2022/11/12 07:26:07;;;;;;;1.63;1.00;;;6.40;99.90;;;;;;5064245;28;20174;-85
2022/11/12 07:28:33;;;;;;;1.00;1.00;;;6.40;99.90;;;;;;5068391;28;20031;-82
2022/11/12 07:31:01;;;;;;;1.92;1.10;;;6.50;99.90;;;;;;5066382;28;20050;-85
2022/11/12 07:33:27;;;;;;;1.35;1.08;;;6.60;99.90;;;;;;5063170;28;20111;-85
2022/11/12 07:36:20;;;;;;;3.20;1.23;;;6.70;99.90;;;;;;5063197;28;20025;-83
2022/11/12 07:38:49;;;;;;;3.40;1.30;;;6.70;99.90;;;;;;5065439;28;20127;-85
2022/11/12 07:41:22;;;;;;;0.88;0.88;;;6.80;99.90;;;;;;5052705;28;20086;-85
2022/11/12 07:43:51;;;;;;;2.17;0.90;;;6.80;99.90;;;;;;5063890;28;20457;-85
2022/11/12 07:46:19;;;;;;;0.90;0.90;;;6.80;99.90;;;;;;5067428;28;20049;-85
2022/11/12 07:48:46;;;;;;;1.92;1.10;;;6.90;99.90;;;;;;5067099;28;20028;-86
2022/11/12 07:51:21;;;;;;;2.50;1.33;;;7.00;99.90;;;;;;5064366;28;20036;-85
2022/11/12 07:53:48;;;;;;;4.93;2.70;;;7.10;99.90;;;;;;5067317;28;20039;-86
2022/11/12 07:56:17;;;;;;;5.45;3.63;;;7.20;99.90;;;;;;5068003;28;20086;-86
2022/11/12 07:58:43;;;;;;;14.70;6.00;;;7.30;99.90;;;;;;5061054;28;20033;-83
2022/11/12 08:01:28;;;;;;;16.35;7.50;;;7.50;99.90;;;;;;5062960;28;20028;-86
2022/11/12 08:03:53;;;;;;;20.45;7.82;;;7.70;99.90;;;;;;5063091;28;20384;-85
2022/11/12 08:06:19;;;;;;;18.83;7.40;;;7.80;99.90;;;;;;5067543;28;20045;-86
2022/11/12 08:08:46;;;;;;;12.30;5.68;;;7.90;99.90;;;;;;5067037;28;20032;-82
2022/11/12 08:11:11;;;;;;;14.55;7.10;;;8.00;99.90;;;;;;5063808;28;20066;-86
2022/11/12 08:13:37;;;;;;;12.15;5.88;;;8.00;99.90;;;;;;5054284;28;20039;-85
2022/11/12 08:16:03;;;;;;;6.80;4.00;;;8.20;99.90;;;;;;5062439;28;20746;-85
2022/11/12 08:18:30;;;;;;;5.40;3.30;;;8.20;99.90;;;;;;5063546;28;20060;-83
2022/11/12 08:21:04;;;;;;;3.50;1.80;;;8.30;99.90;;;;;;5066094;28;20028;-85
2022/11/12 08:23:30;;;;;;;3.10;2.00;;;8.30;99.90;;;;;;5064277;28;20429;-85
2022/11/12 08:26:04;;;;;;;5.43;2.47;;;8.30;99.90;;;;;;5061317;28;20142;-85
2022/11/12 08:28:31;;;;;;;7.50;2.72;;;8.20;99.90;;;;;;5063715;28;20044;-85
2022/11/12 08:31:02;;;;;;;3.85;1.90;;;8.30;99.90;;;;;;5063705;28;20029;-86
2022/11/12 08:33:27;;;;;;;2.33;1.90;;;8.30;99.90;;;;;;5064612;28;20031;-86
2022/11/12 08:35:53;;;;;;;2.05;1.80;;;8.30;99.90;;;;;;5063971;28;20032;-82
2022/11/12 08:38:18;;;;;;;3.53;2.08;;;8.30;99.90;;;;;;5062453;28;20028;-85
2022/11/12 08:40:44;;;;;;;2.47;1.80;;;8.40;99.90;;;;;;5060517;28;20036;-86
2022/11/12 08:43:13;;;;;;;2.15;1.27;;;8.40;99.90;;;;;;5063003;28;21600;-86
2022/11/12 08:45:39;;;;;;;5.45;1.88;;;8.40;99.90;;;;;;5061980;28;20028;-84
2022/11/12 08:48:09;;;;;;;6.82;2.03;;;8.50;99.90;;;;;;5066756;28;20047;-86
2022/11/12 08:50:38;;;;;;;1.83;1.42;;;8.50;99.90;;;;;;5064519;28;20016;-81
2022/11/12 08:53:11;;;;;;;2.00;1.70;;;8.60;99.90;;;;;;5058175;28;20036;-85
2022/11/12 08:55:37;;;;;;;1.88;1.58;;;8.60;99.90;;;;;;5065886;28;20025;-85
2022/11/12 08:58:03;;;;;;;1.83;1.58;;;8.60;99.90;;;;;;5064327;28;20025;-87
2022/11/12 09:00:36;;;;;;;8.10;1.55;;;8.70;99.90;;;;;;5062335;28;20461;-87
2022/11/12 09:03:03;;;;;;;2.70;1.50;;;8.80;99.90;;;;;;5060956;28;20024;-86
2022/11/12 09:05:32;;;;;;;2.83;1.30;;;8.90;99.90;;;;;;5063866;28;20066;-86
2022/11/12 09:08:00;;;;;;;2.80;1.35;;;9.00;99.90;;;;;;5062930;28;20052;-88
2022/11/12 09:10:26;;;;;;;4.75;1.70;;;9.10;99.90;;;;;;5062743;28;20035;-86
2022/11/12 09:12:52;;;;;;;4.45;3.08;;;9.20;99.90;;;;;;5060401;28;20036;-87
2022/11/12 09:15:19;;;;;;;33.60;16.20;;;9.30;99.90;;;;;;5062219;28;20034;-86
2022/11/12 09:17:44;;;;;;;48.63;25.00;;;9.30;99.90;;;;;;5059870;28;20102;-86
2022/11/12 09:20:10;;;;;;;42.75;22.15;;;9.40;99.90;;;;;;5063135;28;20072;-86
2022/11/12 09:22:35;;;;;;;5.60;3.08;;;9.40;99.90;;;;;;5056317;28;20431;-85
2022/11/12 09:25:01;;;;;;;3.25;2.30;;;9.50;99.90;;;;;;5068519;28;20044;-87
2022/11/12 09:27:28;;;;;;;5.38;2.00;;;9.60;99.90;;;;;;5058951;28;20035;-87
2022/11/12 09:29:54;;;;;;;3.22;1.80;;;9.60;99.90;;;;;;5058531;28;20028;-87
2022/11/12 09:32:19;;;;;;;3.42;1.80;;;9.60;99.90;;;;;;5057749;28;20025;-86
2022/11/12 09:34:45;;;;;;;4.28;1.98;;;9.70;99.90;;;;;;5057541;28;20043;-86
2022/11/12 09:37:11;;;;;;;7.50;3.40;;;9.60;99.90;;;;;;5051098;28;20398;-87
2022/11/12 09:39:36;;;;;;;8.90;3.30;;;9.70;99.90;;;;;;5058731;28;20051;-86
2022/11/12 09:42:08;;;;;;;11.13;4.15;;;9.70;99.90;;;;;;5058857;28;20500;-87
2022/11/12 09:44:38;;;;;;;8.80;4.57;;;9.80;99.90;;;;;;5058737;28;20043;-87
2022/11/12 09:47:14;;;;;;;11.57;5.07;;;9.80;99.90;;;;;;5061101;28;20032;-87
2022/11/12 09:49:53;;;;;;;15.95;7.22;;;9.90;99.90;;;;;;5056814;28;20116;-87
2022/11/12 09:52:24;;;;;;;18.45;6.70;;;9.90;99.90;;;;;;5063261;28;20017;-87
2022/11/12 09:55:08;;;;;;;13.68;5.40;;;10.00;99.90;;;;;;5063632;28;20389;-86
2022/11/12 09:57:34;;;;;;;7.45;4.25;;;10.10;99.90;;;;;;5066374;28;20032;-87
2022/11/12 10:00:02;;;;;;;6.75;3.67;;;10.20;99.90;;;;;;5057708;28;20035;-87
2022/11/12 10:02:45;;;;;;;7.00;3.20;;;10.20;99.90;;;;;;5057918;28;20028;-87
2022/11/12 10:05:38;;;;;;;5.40;2.88;;;10.30;99.90;;;;;;5064501;28;20040;-86
2022/11/12 10:08:25;;;;;;;4.93;2.80;;;10.40;99.90;;;;;;5066408;28;20025;-87
2022/11/12 10:11:17;;;;;;;6.60;3.00;;;10.50;99.90;;;;;;5064244;28;20047;-84
2022/11/12 10:14:01;;;;;;;6.65;2.72;;;10.60;99.90;;;;;;5059747;28;20031;-87
2022/11/12 10:16:42;;;;;;;4.18;2.00;;;10.60;99.90;;;;;;5057658;28;20036;-87
2022/11/12 10:19:26;;;;;;;2.75;1.83;;;10.70;99.90;;;;;;5065979;28;20165;-87
2022/11/12 10:22:29;;;;;;;6.93;2.83;;;10.80;99.90;;;;;;5064868;28;20033;-85
2022/11/12 10:24:56;;;;;;;14.38;5.22;;;10.80;99.90;;;;;;5065423;28;20061;-86
2022/11/12 10:27:26;;;;;;;11.82;6.60;;;10.80;99.90;;;;;;5067635;28;20047;-85
2022/11/12 10:30:12;;;;;;;10.65;5.65;;;10.80;99.90;;;;;;5063188;28;20029;-86
2022/11/12 10:32:43;;;;;;;6.53;3.15;;;10.80;99.90;;;;;;5062579;28;20029;-87
2022/11/12 10:35:10;;;;;;;4.97;2.00;;;10.90;99.90;;;;;;5067848;28;20124;-86
2022/11/12 10:38:11;;;;;;;2.60;1.75;;;10.90;99.90;;;;;;5067531;28;20025;-86
2022/11/12 10:40:39;;;;;;;5.57;1.95;;;10.80;99.90;;;;;;5067390;28;20536;-85
2022/11/12 10:43:20;;;;;;;2.97;1.48;;;10.80;99.90;;;;;;5058358;28;20029;-84
2022/11/12 10:45:48;;;;;;;4.05;1.90;;;10.80;99.90;;;;;;5062600;28;20047;-86
2022/11/12 10:48:27;;;;;;;2.17;1.30;;;10.70;99.90;;;;;;5061973;28;20025;-88
2022/11/12 10:50:53;;;;;;;2.60;1.88;;;10.70;99.90;;;;;;5063032;28;20397;-87
2022/11/12 10:53:35;;;;;;;2.35;1.83;;;10.70;99.90;;;;;;5067067;28;20024;-87
2022/11/12 10:56:04;;;;;;;5.55;2.72;;;10.80;99.90;;;;;;5062027;28;20029;-87
2022/11/12 10:58:29;;;;;;;6.03;2.38;;;10.70;99.90;;;;;;5066560;28;20032;-87
2022/11/12 11:01:01;;;;;;;4.97;2.67;;;10.80;99.90;;;;;;5066649;28;20036;-87
2022/11/12 11:03:35;;;;;;;2.03;1.65;;;10.80;99.90;;;;;;5060833;28;20029;-84
2022/11/12 11:06:13;;;;;;;9.60;6.15;;;10.80;99.90;;;;;;5069264;28;20485;-87
2022/11/12 11:08:47;;;;;;;14.27;8.00;;;10.90;99.90;;;;;;5060873;28;20025;-87
2022/11/12 11:11:15;;;;;;;15.38;9.05;;;10.90;99.90;;;;;;5059788;28;20037;-87
2022/11/12 11:13:42;;;;;;;16.38;9.23;;;11.00;99.90;;;;;;5063269;28;20588;-86
2022/11/12 11:16:13;;;;;;;12.52;8.18;;;11.10;99.90;;;;;;5061439;28;20032;-87
2022/11/12 11:18:44;;;;;;;13.73;7.25;;;11.10;99.90;;;;;;5061937;28;20033;-87
2022/11/12 11:21:15;;;;;;;9.57;5.70;;;11.10;99.90;;;;;;5061172;28;20417;-87
2022/11/12 11:24:18;;;;;;;6.00;4.30;;;11.20;99.90;;;;;;5060986;28;20021;-87
2022/11/12 11:27:02;;;;;;;5.47;4.05;;;11.30;99.90;;;;;;5059977;28;20044;-87
2022/11/12 11:29:43;;;;;;;5.13;3.42;;;11.30;99.90;;;;;;5060593;28;20021;-87
2022/11/12 11:32:27;;;;;;;6.47;3.25;;;11.40;99.90;;;;;;5060026;28;20033;-87
2022/11/12 11:35:41;;;;;;;11.13;3.55;;;11.40;99.90;;;;;;5060392;28;20116;-87
2022/11/12 11:38:24;;;;;;;5.55;3.10;;;11.50;99.90;;;;;;5059006;28;20016;-84
2022/11/12 11:41:14;;;;;;;5.82;2.95;;;11.50;99.90;;;;;;5060335;28;20114;-83
2022/11/12 11:43:47;;;;;;;5.30;2.63;;;11.60;99.90;;;;;;5060112;28;20044;-87
2022/11/12 11:46:28;;;;;;;5.07;2.22;;;11.60;99.90;;;;;;5068647;28;20504;-87
2022/11/12 11:49:19;;;;;;;5.95;2.97;;;11.70;99.90;;;;;;5059942;28;20029;-87
2022/11/12 11:52:05;;;;;;;4.57;3.05;;;11.80;99.90;;;;;;5059936;28;20028;-86
2022/11/12 11:54:31;;;;;;;6.18;2.65;;;11.80;99.90;;;;;;5059232;28;20098;-82
2022/11/12 11:57:00;;;;;;;9.45;2.85;;;12.00;99.90;;;;;;5058853;28;20033;-87
2022/11/12 12:00:02;;;;;;;8.50;4.07;;;12.10;99.90;;;;;;5068352;28;20029;-87
2022/11/12 12:02:42;;;;;;;9.02;3.80;;;12.10;99.90;;;;;;5068622;28;20481;-87
2022/11/12 12:05:25;;;;;;;11.30;2.90;;;12.20;99.90;;;;;;5061334;28;20106;-87
2022/11/12 12:08:10;;;;;;;4.82;2.67;;;12.20;99.90;;;;;;5060145;28;20027;-83
2022/11/12 12:10:56;;;;;;;6.60;2.65;;;12.30;99.90;;;;;;5060310;28;20105;-87
2022/11/12 12:13:28;;;;;;;3.47;2.25;;;12.20;99.90;;;;;;5059401;28;20029;-82
2022/11/12 12:16:01;;;;;;;3.10;2.00;;;12.20;99.90;;;;;;5063023;28;20074;-86
2022/11/12 12:18:51;;;;;;;9.43;3.10;;;12.20;99.90;;;;;;5060117;28;20025;-88
2022/11/12 12:21:20;;;;;;;6.25;2.60;;;12.10;99.90;;;;;;5059530;28;20126;-84
2022/11/12 12:23:59;;;;;;;8.45;2.75;;;12.10;99.90;;;;;;5060887;28;20465;-87
2022/11/12 12:26:35;;;;;;;5.47;3.22;;;12.10;99.90;;;;;;5068052;28;20044;-87
2022/11/12 12:29:33;;;;;;;4.97;2.30;;;12.20;99.90;;;;;;5059543;28;20470;-87
2022/11/12 12:32:12;;;;;;;6.47;3.38;;;12.20;99.90;;;;;;5054023;28;20152;-87
2022/11/12 12:34:42;;;;;;;5.75;3.70;;;12.30;99.90;;;;;;5063140;28;20056;-86
2022/11/12 12:37:40;;;;;;;10.38;4.07;;;12.40;99.90;;;;;;5060893;28;20481;-86
2022/11/12 12:40:42;;;;;;;6.93;3.85;;;12.40;99.90;;;;;;5050984;28;20037;-87
2022/11/12 12:43:31;;;;;;;10.55;3.67;;;12.50;99.90;;;;;;5048190;28;20055;-87
2022/11/12 12:45:57;;;;;;;7.18;3.03;;;12.60;99.90;;;;;;5061618;28;20540;-86
2022/11/12 12:48:31;;;;;;;6.18;3.80;;;12.60;99.90;;;;;;5066502;28;20037;-86
2022/11/12 12:50:57;;;;;;;7.07;3.85;;;12.70;99.90;;;;;;5058223;28;20090;-85
2022/11/12 12:53:29;;;;;;;10.05;3.53;;;12.70;99.90;;;;;;5059681;28;20029;-85
2022/11/12 12:56:01;;;;;;;8.88;5.00;;;12.70;99.90;;;;;;5059654;28;20024;-87
2022/11/12 12:58:46;;;;;;;7.25;3.90;;;12.80;99.90;;;;;;5059943;28;20382;-86
2022/11/12 13:01:21;;;;;;;9.45;4.00;;;12.70;99.90;;;;;;5062666;28;20040;-86
2022/11/12 13:04:07;;;;;;;9.80;3.78;;;12.70;99.90;;;;;;5063237;28;20033;-84
2022/11/12 13:06:45;;;;;;;11.43;3.28;;;12.70;99.90;;;;;;5058803;28;20037;-86
2022/11/12 13:09:16;;;;;;;9.00;2.92;;;12.70;99.90;;;;;;5059608;28;20021;-87
2022/11/12 13:14:35;;;;;;;7.63;3.47;;;12.70;99.90;;;;;;5065945;28;20094;-87
2022/11/12 13:17:00;;;;;;;6.82;2.92;;;12.70;99.90;;;;;;5060028;28;20029;-86
2022/11/12 13:19:53;;;;;;;8.00;2.42;;;12.60;99.90;;;;;;5058205;28;20414;-82
2022/11/12 13:22:19;;;;;;;4.72;2.58;;;12.60;99.90;;;;;;5062592;28;20474;-86
2022/11/12 13:25:09;;;;;;;7.10;1.90;;;12.50;99.90;;;;;;5057732;28;20052;-86
2022/11/12 13:27:46;;;;;;;3.47;2.13;;;12.50;99.90;;;;;;5068421;28;20029;-83
2022/11/12 13:30:12;;;;;;;5.53;2.95;;;12.50;99.90;;;;;;5060193;28;20847;-86
2022/11/12 13:32:46;;;;;;;4.05;2.45;;;12.50;99.90;;;;;;5058732;28;20032;-86
2022/11/12 13:35:19;;;;;;;3.38;2.20;;;12.50;99.90;;;;;;5059053;28;20506;-86